sensor_id;sensor_type;location;lat;lon;timestamp;P1;durP1;ratioP1;P2;durP2;ratioP2
79130;SDS011;68530;45.194;9.142;2023-04-25T00:02:01;3.72;;;1.92;;
79130;SDS011;68530;45.194;9.142;2023-04-25T00:04:27;4.13;;;2.42;;
79130;SDS011;68530;45.194;9.142;2023-04-25T00:06:53;3.80;;;1.80;;
79130;SDS011;68530;45.194;9.142;2023-04-25T00:09:19;4.93;;;2.20;;
79130;SDS011;68530;45.194;9.142;2023-04-25T00:11:44;3.95;;;2.33;;
79130;SDS011;68530;45.194;9.142;2023-04-25T00:14:09;3.90;;;2.20;;
79130;SDS011;68530;45.194;9.142;2023-04-25T00:16:35;4.57;;;2.28;;
79130;SDS011;68530;45.194;9.142;2023-04-25T00:19:01;4.25;;;2.20;;
79130;SDS011;68530;45.194;9.142;2023-04-25T00:21:27;3.90;;;2.20;;
79130;SDS011;68530;45.194;9.142;2023-04-25T00:23:53;3.50;;;1.98;;
79130;SDS011;68530;45.194;9.142;2023-04-25T00:26:18;3.13;;;1.83;;
79130;SDS011;68530;45.194;9.142;2023-04-25T00:28:45;2.97;;;1.70;;
79130;SDS011;68530;45.194;9.142;2023-04-25T00:31:12;3.25;;;1.60;;
79130;SDS011;68530;45.194;9.142;2023-04-25T00:33:38;3.72;;;1.83;;
79130;SDS011;68530;45.194;9.142;2023-04-25T00:36:03;3.55;;;1.85;;
79130;SDS011;68530;45.194;9.142;2023-04-25T00:38:29;10.93;;;2.13;;
79130;SDS011;68530;45.194;9.142;2023-04-25T00:40:54;4.25;;;1.70;;
79130;SDS011;68530;45.194;9.142;2023-04-25T00:43:20;3.67;;;1.83;;
79130;SDS011;68530;45.194;9.142;2023-04-25T00:45:46;4.82;;;1.98;;
79130;SDS011;68530;45.194;9.142;2023-04-25T00:48:13;3.88;;;1.90;;
79130;SDS011;68530;45.194;9.142;2023-04-25T00:50:39;4.35;;;2.20;;
79130;SDS011;68530;45.194;9.142;2023-04-25T00:53:05;3.35;;;1.95;;
79130;SDS011;68530;45.194;9.142;2023-04-25T00:55:31;5.53;;;1.85;;
79130;SDS011;68530;45.194;9.142;2023-04-25T00:57:59;4.38;;;2.10;;
79130;SDS011;68530;45.194;9.142;2023-04-25T01:00:25;4.55;;;1.95;;
79130;SDS011;68530;45.194;9.142;2023-04-25T01:02:50;5.35;;;2.33;;
79130;SDS011;68530;45.194;9.142;2023-04-25T01:05:16;4.38;;;2.10;;
79130;SDS011;68530;45.194;9.142;2023-04-25T01:07:43;3.65;;;1.73;;
79130;SDS011;68530;45.194;9.142;2023-04-25T01:10:10;3.20;;;1.83;;
79130;SDS011;68530;45.194;9.142;2023-04-25T01:12:35;3.95;;;1.95;;
79130;SDS011;68530;45.194;9.142;2023-04-25T01:15:01;3.33;;;1.75;;
79130;SDS011;68530;45.194;9.142;2023-04-25T01:17:27;5.88;;;1.95;;
79130;SDS011;68530;45.194;9.142;2023-04-25T01:19:54;4.65;;;2.05;;
79130;SDS011;68530;45.194;9.142;2023-04-25T01:22:19;4.68;;;1.95;;
79130;SDS011;68530;45.194;9.142;2023-04-25T01:24:46;3.00;;;1.80;;
79130;SDS011;68530;45.194;9.142;2023-04-25T01:27:11;4.40;;;1.90;;
79130;SDS011;68530;45.194;9.142;2023-04-25T01:29:37;3.90;;;2.05;;
79130;SDS011;68530;45.194;9.142;2023-04-25T01:32:04;4.82;;;2.15;;
79130;SDS011;68530;45.194;9.142;2023-04-25T01:34:30;3.47;;;2.00;;
79130;SDS011;68530;45.194;9.142;2023-04-25T01:36:55;5.75;;;2.20;;
79130;SDS011;68530;45.194;9.142;2023-04-25T01:39:21;4.70;;;2.08;;
79130;SDS011;68530;45.194;9.142;2023-04-25T01:41:47;5.13;;;2.30;;
79130;SDS011;68530;45.194;9.142;2023-04-25T01:44:13;3.92;;;1.90;;
79130;SDS011;68530;45.194;9.142;2023-04-25T01:46:39;4.95;;;2.50;;
79130;SDS011;68530;45.194;9.142;2023-04-25T01:49:05;4.72;;;2.20;;
79130;SDS011;68530;45.194;9.142;2023-04-25T01:51:30;4.22;;;1.90;;
79130;SDS011;68530;45.194;9.142;2023-04-25T01:53:56;5.10;;;2.20;;
79130;SDS011;68530;45.194;9.142;2023-04-25T01:56:22;4.13;;;2.08;;
79130;SDS011;68530;45.194;9.142;2023-04-25T01:58:48;5.45;;;2.28;;
79130;SDS011;68530;45.194;9.142;2023-04-25T02:01:13;3.47;;;1.95;;
79130;SDS011;68530;45.194;9.142;2023-04-25T02:03:39;3.80;;;2.25;;
79130;SDS011;68530;45.194;9.142;2023-04-25T02:06:04;5.18;;;2.20;;
79130;SDS011;68530;45.194;9.142;2023-04-25T02:08:30;4.03;;;2.25;;
79130;SDS011;68530;45.194;9.142;2023-04-25T02:10:56;4.53;;;2.33;;
79130;SDS011;68530;45.194;9.142;2023-04-25T02:13:21;4.47;;;2.30;;
79130;SDS011;68530;45.194;9.142;2023-04-25T02:15:47;3.65;;;2.10;;
79130;SDS011;68530;45.194;9.142;2023-04-25T02:18:12;3.85;;;2.35;;
79130;SDS011;68530;45.194;9.142;2023-04-25T02:20:38;4.28;;;2.28;;
79130;SDS011;68530;45.194;9.142;2023-04-25T02:23:03;4.05;;;2.50;;
79130;SDS011;68530;45.194;9.142;2023-04-25T02:25:29;4.15;;;2.60;;
79130;SDS011;68530;45.194;9.142;2023-04-25T02:27:54;5.53;;;2.28;;
79130;SDS011;68530;45.194;9.142;2023-04-25T02:30:19;5.70;;;2.33;;
79130;SDS011;68530;45.194;9.142;2023-04-25T02:32:45;3.65;;;2.20;;
79130;SDS011;68530;45.194;9.142;2023-04-25T02:35:11;3.75;;;2.25;;
79130;SDS011;68530;45.194;9.142;2023-04-25T02:37:37;3.78;;;2.13;;
79130;SDS011;68530;45.194;9.142;2023-04-25T02:40:03;5.45;;;2.38;;
79130;SDS011;68530;45.194;9.142;2023-04-25T02:42:29;3.63;;;2.28;;
79130;SDS011;68530;45.194;9.142;2023-04-25T02:44:55;4.28;;;2.40;;
79130;SDS011;68530;45.194;9.142;2023-04-25T02:47:20;4.18;;;2.20;;
79130;SDS011;68530;45.194;9.142;2023-04-25T02:49:46;4.93;;;2.38;;
79130;SDS011;68530;45.194;9.142;2023-04-25T02:52:11;6.88;;;2.13;;
79130;SDS011;68530;45.194;9.142;2023-04-25T02:54:37;4.93;;;2.70;;
79130;SDS011;68530;45.194;9.142;2023-04-25T02:57:03;4.15;;;2.38;;
79130;SDS011;68530;45.194;9.142;2023-04-25T02:59:29;4.40;;;2.40;;
79130;SDS011;68530;45.194;9.142;2023-04-25T03:01:54;3.65;;;2.30;;
79130;SDS011;68530;45.194;9.142;2023-04-25T03:04:20;6.13;;;3.10;;
79130;SDS011;68530;45.194;9.142;2023-04-25T03:06:45;4.43;;;2.65;;
79130;SDS011;68530;45.194;9.142;2023-04-25T03:09:11;4.60;;;2.67;;
79130;SDS011;68530;45.194;9.142;2023-04-25T03:11:38;5.57;;;2.72;;
79130;SDS011;68530;45.194;9.142;2023-04-25T03:14:03;3.80;;;2.40;;
79130;SDS011;68530;45.194;9.142;2023-04-25T03:16:29;4.43;;;2.47;;
79130;SDS011;68530;45.194;9.142;2023-04-25T03:18:55;5.93;;;2.75;;
79130;SDS011;68530;45.194;9.142;2023-04-25T03:21:22;5.25;;;2.75;;
79130;SDS011;68530;45.194;9.142;2023-04-25T03:23:47;4.93;;;2.58;;
79130;SDS011;68530;45.194;9.142;2023-04-25T03:26:12;5.35;;;2.90;;
79130;SDS011;68530;45.194;9.142;2023-04-25T03:28:38;4.22;;;2.67;;
79130;SDS011;68530;45.194;9.142;2023-04-25T03:31:05;4.45;;;2.70;;
79130;SDS011;68530;45.194;9.142;2023-04-25T03:33:30;6.38;;;2.85;;
79130;SDS011;68530;45.194;9.142;2023-04-25T03:35:56;5.53;;;3.00;;
79130;SDS011;68530;45.194;9.142;2023-04-25T03:38:21;4.22;;;3.00;;
79130;SDS011;68530;45.194;9.142;2023-04-25T03:40:46;4.28;;;2.78;;
79130;SDS011;68530;45.194;9.142;2023-04-25T03:43:12;7.35;;;3.40;;
79130;SDS011;68530;45.194;9.142;2023-04-25T03:45:37;5.15;;;2.88;;
79130;SDS011;68530;45.194;9.142;2023-04-25T03:48:03;4.40;;;3.05;;
79130;SDS011;68530;45.194;9.142;2023-04-25T03:50:28;4.45;;;2.72;;
79130;SDS011;68530;45.194;9.142;2023-04-25T03:52:54;5.15;;;2.85;;
79130;SDS011;68530;45.194;9.142;2023-04-25T03:55:19;4.75;;;3.00;;
79130;SDS011;68530;45.194;9.142;2023-04-25T03:57:44;5.20;;;3.20;;
79130;SDS011;68530;45.194;9.142;2023-04-25T04:00:10;8.60;;;3.08;;
79130;SDS011;68530;45.194;9.142;2023-04-25T04:02:36;4.95;;;3.10;;
79130;SDS011;68530;45.194;9.142;2023-04-25T04:05:02;5.32;;;2.97;;
79130;SDS011;68530;45.194;9.142;2023-04-25T04:07:28;4.80;;;2.70;;
79130;SDS011;68530;45.194;9.142;2023-04-25T04:09:54;4.68;;;2.90;;
79130;SDS011;68530;45.194;9.142;2023-04-25T04:12:19;5.05;;;3.15;;
79130;SDS011;68530;45.194;9.142;2023-04-25T04:14:45;5.50;;;2.97;;
79130;SDS011;68530;45.194;9.142;2023-04-25T04:17:10;5.00;;;3.15;;
79130;SDS011;68530;45.194;9.142;2023-04-25T04:19:35;5.78;;;3.47;;
79130;SDS011;68530;45.194;9.142;2023-04-25T04:22:01;4.43;;;2.60;;
79130;SDS011;68530;45.194;9.142;2023-04-25T04:24:26;6.45;;;3.40;;
79130;SDS011;68530;45.194;9.142;2023-04-25T04:26:51;5.45;;;3.40;;
79130;SDS011;68530;45.194;9.142;2023-04-25T04:29:18;4.88;;;2.90;;
79130;SDS011;68530;45.194;9.142;2023-04-25T04:31:49;4.88;;;3.05;;
79130;SDS011;68530;45.194;9.142;2023-04-25T04:34:15;4.53;;;2.85;;
79130;SDS011;68530;45.194;9.142;2023-04-25T04:36:41;5.85;;;2.95;;
79130;SDS011;68530;45.194;9.142;2023-04-25T04:39:07;5.03;;;2.83;;
79130;SDS011;68530;45.194;9.142;2023-04-25T04:41:34;5.55;;;3.10;;
79130;SDS011;68530;45.194;9.142;2023-04-25T04:43:59;4.50;;;2.90;;
79130;SDS011;68530;45.194;9.142;2023-04-25T04:46:26;5.93;;;3.08;;
79130;SDS011;68530;45.194;9.142;2023-04-25T04:48:52;4.22;;;3.10;;
79130;SDS011;68530;45.194;9.142;2023-04-25T04:51:18;5.32;;;2.90;;
79130;SDS011;68530;45.194;9.142;2023-04-25T04:53:44;5.07;;;2.45;;
79130;SDS011;68530;45.194;9.142;2023-04-25T04:56:09;4.60;;;2.88;;
79130;SDS011;68530;45.194;9.142;2023-04-25T04:58:35;6.07;;;3.03;;
79130;SDS011;68530;45.194;9.142;2023-04-25T05:01:01;4.35;;;3.00;;
79130;SDS011;68530;45.194;9.142;2023-04-25T05:03:27;7.05;;;3.38;;
79130;SDS011;68530;45.194;9.142;2023-04-25T05:05:53;5.05;;;3.13;;
79130;SDS011;68530;45.194;9.142;2023-04-25T05:08:18;7.05;;;3.10;;
79130;SDS011;68530;45.194;9.142;2023-04-25T05:10:43;4.88;;;2.88;;
79130;SDS011;68530;45.194;9.142;2023-04-25T05:13:09;4.43;;;3.05;;
79130;SDS011;68530;45.194;9.142;2023-04-25T05:15:34;7.03;;;3.20;;
79130;SDS011;68530;45.194;9.142;2023-04-25T05:17:59;5.40;;;3.20;;
79130;SDS011;68530;45.194;9.142;2023-04-25T05:20:25;6.50;;;3.83;;
79130;SDS011;68530;45.194;9.142;2023-04-25T05:22:50;5.60;;;3.30;;
79130;SDS011;68530;45.194;9.142;2023-04-25T05:25:16;5.05;;;3.28;;
79130;SDS011;68530;45.194;9.142;2023-04-25T05:27:41;7.68;;;3.75;;
79130;SDS011;68530;45.194;9.142;2023-04-25T05:30:07;5.75;;;4.18;;
79130;SDS011;68530;45.194;9.142;2023-04-25T05:32:33;6.57;;;3.97;;
79130;SDS011;68530;45.194;9.142;2023-04-25T05:34:59;6.20;;;3.30;;
79130;SDS011;68530;45.194;9.142;2023-04-25T05:37:25;5.38;;;3.28;;
79130;SDS011;68530;45.194;9.142;2023-04-25T05:39:50;5.82;;;3.25;;
79130;SDS011;68530;45.194;9.142;2023-04-25T05:42:15;5.57;;;3.47;;
79130;SDS011;68530;45.194;9.142;2023-04-25T05:44:41;4.95;;;3.40;;
79130;SDS011;68530;45.194;9.142;2023-04-25T05:47:06;5.38;;;3.50;;
79130;SDS011;68530;45.194;9.142;2023-04-25T05:49:31;7.53;;;3.42;;
79130;SDS011;68530;45.194;9.142;2023-04-25T05:51:57;5.93;;;3.13;;
79130;SDS011;68530;45.194;9.142;2023-04-25T05:54:22;5.85;;;3.35;;
79130;SDS011;68530;45.194;9.142;2023-04-25T05:56:48;5.50;;;3.17;;
79130;SDS011;68530;45.194;9.142;2023-04-25T05:59:13;5.68;;;3.30;;
79130;SDS011;68530;45.194;9.142;2023-04-25T06:01:38;5.32;;;3.72;;
79130;SDS011;68530;45.194;9.142;2023-04-25T06:04:05;5.63;;;3.22;;
79130;SDS011;68530;45.194;9.142;2023-04-25T06:06:30;7.43;;;3.38;;
79130;SDS011;68530;45.194;9.142;2023-04-25T06:08:55;6.35;;;3.35;;
79130;SDS011;68530;45.194;9.142;2023-04-25T06:11:21;5.43;;;3.67;;
79130;SDS011;68530;45.194;9.142;2023-04-25T06:13:46;5.88;;;3.42;;
79130;SDS011;68530;45.194;9.142;2023-04-25T06:16:12;5.65;;;3.53;;
79130;SDS011;68530;45.194;9.142;2023-04-25T06:18:37;5.90;;;3.95;;
79130;SDS011;68530;45.194;9.142;2023-04-25T06:21:02;7.43;;;3.50;;
79130;SDS011;68530;45.194;9.142;2023-04-25T06:23:28;4.47;;;3.05;;
79130;SDS011;68530;45.194;9.142;2023-04-25T06:25:53;7.05;;;3.35;;
79130;SDS011;68530;45.194;9.142;2023-04-25T06:28:19;5.65;;;3.40;;
79130;SDS011;68530;45.194;9.142;2023-04-25T06:30:44;6.85;;;3.53;;
79130;SDS011;68530;45.194;9.142;2023-04-25T06:33:10;5.22;;;3.72;;
79130;SDS011;68530;45.194;9.142;2023-04-25T06:35:35;6.43;;;4.07;;
79130;SDS011;68530;45.194;9.142;2023-04-25T06:38:00;4.95;;;3.25;;
79130;SDS011;68530;45.194;9.142;2023-04-25T06:40:26;6.10;;;3.40;;
79130;SDS011;68530;45.194;9.142;2023-04-25T06:42:51;5.65;;;3.58;;
79130;SDS011;68530;45.194;9.142;2023-04-25T06:45:17;5.70;;;3.55;;
79130;SDS011;68530;45.194;9.142;2023-04-25T06:47:42;6.50;;;3.80;;
79130;SDS011;68530;45.194;9.142;2023-04-25T06:50:08;5.95;;;3.85;;
79130;SDS011;68530;45.194;9.142;2023-04-25T06:52:33;6.75;;;3.78;;
79130;SDS011;68530;45.194;9.142;2023-04-25T06:54:58;5.72;;;4.00;;
79130;SDS011;68530;45.194;9.142;2023-04-25T06:57:24;5.93;;;3.60;;
79130;SDS011;68530;45.194;9.142;2023-04-25T06:59:49;5.80;;;3.72;;
79130;SDS011;68530;45.194;9.142;2023-04-25T07:02:15;5.80;;;3.30;;
79130;SDS011;68530;45.194;9.142;2023-04-25T07:04:40;6.45;;;3.55;;
79130;SDS011;68530;45.194;9.142;2023-04-25T07:07:05;6.28;;;3.70;;
79130;SDS011;68530;45.194;9.142;2023-04-25T07:09:30;6.85;;;3.47;;
79130;SDS011;68530;45.194;9.142;2023-04-25T07:11:58;5.88;;;3.42;;
79130;SDS011;68530;45.194;9.142;2023-04-25T07:14:24;6.20;;;3.33;;
79130;SDS011;68530;45.194;9.142;2023-04-25T07:16:50;5.88;;;3.45;;
79130;SDS011;68530;45.194;9.142;2023-04-25T07:19:15;4.97;;;3.45;;
79130;SDS011;68530;45.194;9.142;2023-04-25T07:21:41;6.43;;;3.35;;
79130;SDS011;68530;45.194;9.142;2023-04-25T07:24:06;8.65;;;3.50;;
79130;SDS011;68530;45.194;9.142;2023-04-25T07:26:31;6.72;;;3.40;;
79130;SDS011;68530;45.194;9.142;2023-04-25T07:28:57;6.32;;;3.55;;
79130;SDS011;68530;45.194;9.142;2023-04-25T07:31:22;6.47;;;3.40;;
79130;SDS011;68530;45.194;9.142;2023-04-25T07:33:48;6.05;;;3.60;;
79130;SDS011;68530;45.194;9.142;2023-04-25T07:36:13;5.15;;;3.17;;
79130;SDS011;68530;45.194;9.142;2023-04-25T07:38:40;5.57;;;3.50;;
79130;SDS011;68530;45.194;9.142;2023-04-25T07:41:05;7.45;;;3.60;;
79130;SDS011;68530;45.194;9.142;2023-04-25T07:43:31;6.78;;;3.50;;
79130;SDS011;68530;45.194;9.142;2023-04-25T07:45:57;4.95;;;3.33;;
79130;SDS011;68530;45.194;9.142;2023-04-25T07:48:22;5.68;;;3.35;;
79130;SDS011;68530;45.194;9.142;2023-04-25T07:50:48;8.15;;;3.50;;
79130;SDS011;68530;45.194;9.142;2023-04-25T07:53:13;7.55;;;3.33;;
79130;SDS011;68530;45.194;9.142;2023-04-25T07:55:39;6.40;;;2.95;;
79130;SDS011;68530;45.194;9.142;2023-04-25T07:58:08;5.93;;;3.00;;
79130;SDS011;68530;45.194;9.142;2023-04-25T08:00:34;5.70;;;3.25;;
79130;SDS011;68530;45.194;9.142;2023-04-25T08:02:59;5.55;;;3.30;;
79130;SDS011;68530;45.194;9.142;2023-04-25T08:05:25;5.22;;;2.72;;
79130;SDS011;68530;45.194;9.142;2023-04-25T08:07:50;6.32;;;3.25;;
79130;SDS011;68530;45.194;9.142;2023-04-25T08:10:16;4.85;;;2.65;;
79130;SDS011;68530;45.194;9.142;2023-04-25T08:12:41;4.28;;;2.20;;
79130;SDS011;68530;45.194;9.142;2023-04-25T08:15:07;5.50;;;2.90;;
79130;SDS011;68530;45.194;9.142;2023-04-25T08:17:32;45.50;;;5.22;;
79130;SDS011;68530;45.194;9.142;2023-04-25T08:19:58;5.05;;;2.65;;
79130;SDS011;68530;45.194;9.142;2023-04-25T08:22:24;4.28;;;2.60;;
79130;SDS011;68530;45.194;9.142;2023-04-25T08:24:49;7.82;;;3.05;;
79130;SDS011;68530;45.194;9.142;2023-04-25T08:27:14;6.25;;;2.45;;
79130;SDS011;68530;45.194;9.142;2023-04-25T08:29:41;5.72;;;2.67;;
79130;SDS011;68530;45.194;9.142;2023-04-25T08:32:07;5.70;;;2.75;;
79130;SDS011;68530;45.194;9.142;2023-04-25T08:34:32;4.38;;;2.33;;
79130;SDS011;68530;45.194;9.142;2023-04-25T08:36:58;4.57;;;2.58;;
79130;SDS011;68530;45.194;9.142;2023-04-25T08:39:23;5.20;;;2.30;;
79130;SDS011;68530;45.194;9.142;2023-04-25T08:41:49;4.10;;;2.67;;
79130;SDS011;68530;45.194;9.142;2023-04-25T08:44:15;5.80;;;2.65;;
79130;SDS011;68530;45.194;9.142;2023-04-25T08:46:41;4.03;;;2.25;;
79130;SDS011;68530;45.194;9.142;2023-04-25T08:49:08;4.57;;;2.53;;
79130;SDS011;68530;45.194;9.142;2023-04-25T08:51:34;5.88;;;2.63;;
79130;SDS011;68530;45.194;9.142;2023-04-25T08:54:08;5.90;;;2.30;;
79130;SDS011;68530;45.194;9.142;2023-04-25T08:56:37;5.25;;;2.30;;
79130;SDS011;68530;45.194;9.142;2023-04-25T08:59:05;5.03;;;2.25;;
79130;SDS011;68530;45.194;9.142;2023-04-25T09:01:33;5.15;;;2.47;;
79130;SDS011;68530;45.194;9.142;2023-04-25T09:04:00;6.20;;;2.35;;
79130;SDS011;68530;45.194;9.142;2023-04-25T09:06:26;4.93;;;2.50;;
79130;SDS011;68530;45.194;9.142;2023-04-25T09:08:53;6.72;;;3.20;;
79130;SDS011;68530;45.194;9.142;2023-04-25T09:11:18;5.22;;;2.85;;
79130;SDS011;68530;45.194;9.142;2023-04-25T09:13:44;5.10;;;2.65;;
79130;SDS011;68530;45.194;9.142;2023-04-25T09:16:10;6.28;;;3.22;;
79130;SDS011;68530;45.194;9.142;2023-04-25T09:18:36;6.20;;;2.80;;
79130;SDS011;68530;45.194;9.142;2023-04-25T09:21:09;4.95;;;2.67;;
79130;SDS011;68530;45.194;9.142;2023-04-25T09:23:44;5.82;;;2.70;;
79130;SDS011;68530;45.194;9.142;2023-04-25T09:26:13;6.45;;;2.70;;
79130;SDS011;68530;45.194;9.142;2023-04-25T09:28:40;5.47;;;2.97;;
79130;SDS011;68530;45.194;9.142;2023-04-25T09:31:09;5.65;;;2.70;;
79130;SDS011;68530;45.194;9.142;2023-04-25T09:33:36;4.75;;;2.75;;
79130;SDS011;68530;45.194;9.142;2023-04-25T09:36:03;6.65;;;2.95;;
79130;SDS011;68530;45.194;9.142;2023-04-25T09:38:43;6.00;;;2.90;;
79130;SDS011;68530;45.194;9.142;2023-04-25T09:41:10;6.05;;;3.05;;
79130;SDS011;68530;45.194;9.142;2023-04-25T09:43:36;5.78;;;2.60;;
79130;SDS011;68530;45.194;9.142;2023-04-25T09:46:04;5.95;;;3.15;;
79130;SDS011;68530;45.194;9.142;2023-04-25T09:48:34;6.15;;;3.50;;
79130;SDS011;68530;45.194;9.142;2023-04-25T09:51:12;8.55;;;3.33;;
79130;SDS011;68530;45.194;9.142;2023-04-25T09:53:39;7.80;;;2.90;;
79130;SDS011;68530;45.194;9.142;2023-04-25T09:56:06;5.53;;;2.67;;
79130;SDS011;68530;45.194;9.142;2023-04-25T09:58:34;5.95;;;3.22;;
79130;SDS011;68530;45.194;9.142;2023-04-25T10:01:01;8.05;;;3.17;;
79130;SDS011;68530;45.194;9.142;2023-04-25T10:03:46;7.22;;;3.10;;
79130;SDS011;68530;45.194;9.142;2023-04-25T10:06:18;6.07;;;3.10;;
79130;SDS011;68530;45.194;9.142;2023-04-25T10:08:45;6.65;;;3.35;;
79130;SDS011;68530;45.194;9.142;2023-04-25T10:11:16;5.20;;;2.75;;
79130;SDS011;68530;45.194;9.142;2023-04-25T10:13:42;6.38;;;2.80;;
79130;SDS011;68530;45.194;9.142;2023-04-25T10:16:08;4.82;;;3.03;;
79130;SDS011;68530;45.194;9.142;2023-04-25T10:18:33;7.50;;;2.97;;
79130;SDS011;68530;45.194;9.142;2023-04-25T10:21:03;7.20;;;2.75;;
79130;SDS011;68530;45.194;9.142;2023-04-25T10:23:30;9.45;;;3.17;;
79130;SDS011;68530;45.194;9.142;2023-04-25T10:25:56;7.63;;;3.60;;
79130;SDS011;68530;45.194;9.142;2023-04-25T10:28:22;6.05;;;3.17;;
79130;SDS011;68530;45.194;9.142;2023-04-25T10:31:03;6.60;;;3.58;;
79130;SDS011;68530;45.194;9.142;2023-04-25T10:33:32;6.40;;;3.05;;
79130;SDS011;68530;45.194;9.142;2023-04-25T10:35:58;6.75;;;3.35;;
79130;SDS011;68530;45.194;9.142;2023-04-25T10:38:24;5.65;;;3.28;;
79130;SDS011;68530;45.194;9.142;2023-04-25T10:41:24;4.35;;;2.42;;
79130;SDS011;68530;45.194;9.142;2023-04-25T10:43:44;5.95;;;3.45;;
79130;SDS011;68530;45.194;9.142;2023-04-25T10:46:22;6.15;;;3.53;;
79130;SDS011;68530;45.194;9.142;2023-04-25T10:48:53;4.97;;;3.13;;
79130;SDS011;68530;45.194;9.142;2023-04-25T10:51:23;7.22;;;3.30;;
79130;SDS011;68530;45.194;9.142;2023-04-25T10:56:20;6.38;;;3.05;;
79130;SDS011;68530;45.194;9.142;2023-04-25T10:58:46;5.63;;;3.13;;
79130;SDS011;68530;45.194;9.142;2023-04-25T11:01:24;5.32;;;3.28;;
79130;SDS011;68530;45.194;9.142;2023-04-25T11:03:56;5.57;;;3.50;;
79130;SDS011;68530;45.194;9.142;2023-04-25T11:06:26;8.45;;;3.78;;
79130;SDS011;68530;45.194;9.142;2023-04-25T11:08:56;7.18;;;3.50;;
79130;SDS011;68530;45.194;9.142;2023-04-25T11:11:22;6.93;;;3.03;;
79130;SDS011;68530;45.194;9.142;2023-04-25T11:13:48;6.32;;;3.20;;
79130;SDS011;68530;45.194;9.142;2023-04-25T11:16:14;4.43;;;2.60;;
79130;SDS011;68530;45.194;9.142;2023-04-25T11:18:43;6.28;;;2.97;;
79130;SDS011;68530;45.194;9.142;2023-04-25T11:21:09;6.72;;;3.70;;
79130;SDS011;68530;45.194;9.142;2023-04-25T11:23:36;4.68;;;3.28;;
79130;SDS011;68530;45.194;9.142;2023-04-25T11:26:02;6.32;;;3.60;;
79130;SDS011;68530;45.194;9.142;2023-04-25T11:28:28;6.75;;;3.45;;
79130;SDS011;68530;45.194;9.142;2023-04-25T11:30:54;5.03;;;3.30;;
79130;SDS011;68530;45.194;9.142;2023-04-25T11:33:23;5.07;;;2.70;;
79130;SDS011;68530;45.194;9.142;2023-04-25T11:35:50;6.97;;;3.67;;
79130;SDS011;68530;45.194;9.142;2023-04-25T11:38:17;7.82;;;3.00;;
79130;SDS011;68530;45.194;9.142;2023-04-25T11:40:43;5.10;;;2.80;;
79130;SDS011;68530;45.194;9.142;2023-04-25T11:43:08;10.38;;;3.78;;
79130;SDS011;68530;45.194;9.142;2023-04-25T11:45:34;7.20;;;4.10;;
79130;SDS011;68530;45.194;9.142;2023-04-25T11:48:01;6.45;;;3.72;;
79130;SDS011;68530;45.194;9.142;2023-04-25T11:50:28;7.70;;;3.35;;
79130;SDS011;68530;45.194;9.142;2023-04-25T11:52:55;7.95;;;3.22;;
79130;SDS011;68530;45.194;9.142;2023-04-25T11:55:21;4.88;;;2.83;;
79130;SDS011;68530;45.194;9.142;2023-04-25T11:57:48;6.25;;;3.28;;
79130;SDS011;68530;45.194;9.142;2023-04-25T12:00:20;5.15;;;3.47;;
79130;SDS011;68530;45.194;9.142;2023-04-25T12:02:50;5.78;;;2.83;;
79130;SDS011;68530;45.194;9.142;2023-04-25T12:05:17;8.43;;;3.25;;
79130;SDS011;68530;45.194;9.142;2023-04-25T12:07:43;5.55;;;3.50;;
79130;SDS011;68530;45.194;9.142;2023-04-25T12:10:18;13.20;;;3.70;;
79130;SDS011;68530;45.194;9.142;2023-04-25T12:12:44;6.75;;;3.55;;
79130;SDS011;68530;45.194;9.142;2023-04-25T12:17:47;5.38;;;2.80;;
79130;SDS011;68530;45.194;9.142;2023-04-25T12:20:14;6.53;;;3.03;;
79130;SDS011;68530;45.194;9.142;2023-04-25T12:22:44;6.15;;;2.88;;
79130;SDS011;68530;45.194;9.142;2023-04-25T12:25:56;5.47;;;3.08;;
79130;SDS011;68530;45.194;9.142;2023-04-25T12:28:17;6.38;;;3.03;;
79130;SDS011;68530;45.194;9.142;2023-04-25T12:30:57;5.15;;;3.17;;
79130;SDS011;68530;45.194;9.142;2023-04-25T12:33:23;5.43;;;2.83;;
79130;SDS011;68530;45.194;9.142;2023-04-25T12:35:49;5.82;;;3.17;;
79130;SDS011;68530;45.194;9.142;2023-04-25T12:38:20;4.95;;;2.80;;
79130;SDS011;68530;45.194;9.142;2023-04-25T12:40:46;5.40;;;3.20;;
79130;SDS011;68530;45.194;9.142;2023-04-25T12:43:12;5.20;;;3.20;;
79130;SDS011;68530;45.194;9.142;2023-04-25T12:45:37;5.13;;;2.90;;
79130;SDS011;68530;45.194;9.142;2023-04-25T12:48:02;3.80;;;2.28;;
79130;SDS011;68530;45.194;9.142;2023-04-25T12:50:28;4.68;;;3.30;;
79130;SDS011;68530;45.194;9.142;2023-04-25T12:52:53;4.53;;;2.42;;
79130;SDS011;68530;45.194;9.142;2023-04-25T12:55:19;3.67;;;2.10;;
79130;SDS011;68530;45.194;9.142;2023-04-25T12:57:44;5.00;;;2.50;;
79130;SDS011;68530;45.194;9.142;2023-04-25T13:00:10;3.72;;;2.10;;
79130;SDS011;68530;45.194;9.142;2023-04-25T13:02:35;5.45;;;2.30;;
79130;SDS011;68530;45.194;9.142;2023-04-25T13:05:01;6.40;;;2.60;;
79130;SDS011;68530;45.194;9.142;2023-04-25T13:07:26;4.53;;;1.83;;
79130;SDS011;68530;45.194;9.142;2023-04-25T13:09:51;4.93;;;2.30;;
79130;SDS011;68530;45.194;9.142;2023-04-25T13:12:17;4.75;;;2.10;;
79130;SDS011;68530;45.194;9.142;2023-04-25T13:14:42;5.07;;;2.35;;
79130;SDS011;68530;45.194;9.142;2023-04-25T13:17:07;3.58;;;2.10;;
79130;SDS011;68530;45.194;9.142;2023-04-25T13:19:33;4.75;;;2.05;;
79130;SDS011;68530;45.194;9.142;2023-04-25T13:21:58;4.55;;;2.10;;
79130;SDS011;68530;45.194;9.142;2023-04-25T13:24:23;3.95;;;1.92;;
79130;SDS011;68530;45.194;9.142;2023-04-25T13:26:49;4.50;;;1.95;;
79130;SDS011;68530;45.194;9.142;2023-04-25T13:29:14;4.72;;;2.30;;
79130;SDS011;68530;45.194;9.142;2023-04-25T13:31:39;5.30;;;2.25;;
79130;SDS011;68530;45.194;9.142;2023-04-25T13:34:05;5.35;;;2.10;;
79130;SDS011;68530;45.194;9.142;2023-04-25T13:36:30;4.63;;;2.42;;
79130;SDS011;68530;45.194;9.142;2023-04-25T13:38:56;5.63;;;2.30;;
79130;SDS011;68530;45.194;9.142;2023-04-25T13:41:22;4.45;;;2.13;;
79130;SDS011;68530;45.194;9.142;2023-04-25T13:43:47;4.32;;;2.45;;
79130;SDS011;68530;45.194;9.142;2023-04-25T13:46:12;5.65;;;2.20;;
79130;SDS011;68530;45.194;9.142;2023-04-25T13:48:40;4.82;;;2.10;;
79130;SDS011;68530;45.194;9.142;2023-04-25T13:53:36;3.78;;;1.80;;
79130;SDS011;68530;45.194;9.142;2023-04-25T13:56:02;4.65;;;1.92;;
79130;SDS011;68530;45.194;9.142;2023-04-25T13:58:27;5.38;;;1.58;;
79130;SDS011;68530;45.194;9.142;2023-04-25T14:00:52;11.48;;;2.05;;
79130;SDS011;68530;45.194;9.142;2023-04-25T14:03:18;4.45;;;1.63;;
79130;SDS011;68530;45.194;9.142;2023-04-25T14:05:44;5.45;;;1.60;;
79130;SDS011;68530;45.194;9.142;2023-04-25T14:08:09;6.50;;;1.60;;
79130;SDS011;68530;45.194;9.142;2023-04-25T14:10:35;4.38;;;1.50;;
79130;SDS011;68530;45.194;9.142;2023-04-25T14:13:01;4.78;;;1.50;;
79130;SDS011;68530;45.194;9.142;2023-04-25T14:15:28;4.35;;;1.90;;
79130;SDS011;68530;45.194;9.142;2023-04-25T14:17:53;4.13;;;1.52;;
79130;SDS011;68530;45.194;9.142;2023-04-25T14:20:19;4.05;;;1.23;;
79130;SDS011;68530;45.194;9.142;2023-04-25T14:22:46;6.65;;;1.98;;
79130;SDS011;68530;45.194;9.142;2023-04-25T14:25:11;7.78;;;1.77;;
79130;SDS011;68530;45.194;9.142;2023-04-25T14:27:37;7.25;;;1.63;;
79130;SDS011;68530;45.194;9.142;2023-04-25T14:30:02;4.80;;;1.58;;
79130;SDS011;68530;45.194;9.142;2023-04-25T14:32:28;4.13;;;1.50;;
79130;SDS011;68530;45.194;9.142;2023-04-25T14:34:53;3.80;;;1.55;;
79130;SDS011;68530;45.194;9.142;2023-04-25T14:37:18;5.50;;;1.60;;
79130;SDS011;68530;45.194;9.142;2023-04-25T14:39:44;4.18;;;1.63;;
79130;SDS011;68530;45.194;9.142;2023-04-25T14:42:09;3.67;;;1.80;;
79130;SDS011;68530;45.194;9.142;2023-04-25T14:44:36;3.92;;;1.33;;
79130;SDS011;68530;45.194;9.142;2023-04-25T14:47:01;4.30;;;1.80;;
79130;SDS011;68530;45.194;9.142;2023-04-25T14:49:27;4.13;;;1.40;;
79130;SDS011;68530;45.194;9.142;2023-04-25T14:51:53;2.58;;;1.30;;